createdAt,value
2022-10-02T00:00:02.409Z,8.20
2022-10-02T00:02:48.618Z,10.15
2022-10-02T00:05:24.245Z,9.73
2022-10-02T00:08:32.193Z,10.77
2022-10-02T00:11:09.266Z,10.30
2022-10-02T00:13:47.070Z,11.90
2022-10-02T00:16:46.841Z,12.18
2022-10-02T00:19:19.232Z,11.30
2022-10-02T00:22:22.036Z,11.88
2022-10-02T00:25:26.330Z,11.88
2022-10-02T00:28:22.514Z,11.48
2022-10-02T00:31:19.083Z,11.23
2022-10-02T00:34:27.109Z,11.40
2022-10-02T00:37:14.635Z,11.98
2022-10-02T00:40:11.288Z,10.98
2022-10-02T00:43:11.270Z,11.23
2022-10-02T00:46:06.822Z,11.70
2022-10-02T00:48:44.400Z,11.15
2022-10-02T00:51:47.988Z,11.13
2022-10-02T00:54:53.997Z,10.10
2022-10-02T00:58:03.334Z,10.52
2022-10-02T01:00:31.717Z,11.07
2022-10-02T01:03:22.571Z,9.07
2022-10-02T01:05:50.580Z,9.18
2022-10-02T01:08:18.155Z,8.50
2022-10-02T01:10:45.911Z,8.55
2022-10-02T01:13:13.321Z,8.23
2022-10-02T01:15:52.842Z,8.02
2022-10-02T01:18:20.823Z,8.27
2022-10-02T01:20:58.493Z,7.97
2022-10-02T01:23:40.408Z,7.95
2022-10-02T01:26:08.037Z,6.97
2022-10-02T01:28:35.545Z,6.97
2022-10-02T01:31:10.190Z,7.05
2022-10-02T01:33:43.102Z,6.80
2022-10-02T01:36:13.572Z,7.40
2022-10-02T01:38:42.905Z,6.85
2022-10-02T01:41:11.482Z,7.20
2022-10-02T01:43:53.311Z,6.05
2022-10-02T01:49:25.805Z,6.55
2022-10-02T01:52:17.945Z,6.07
2022-10-02T01:55:09.053Z,6.13
2022-10-02T01:57:58.522Z,6.03
2022-10-02T02:00:38.325Z,6.25
2022-10-02T02:03:23.861Z,6.45
2022-10-02T02:06:01.706Z,6.47
2022-10-02T02:08:47.192Z,5.97
2022-10-02T02:11:19.548Z,5.35
2022-10-02T02:14:16.104Z,5.28
2022-10-02T02:17:08.897Z,6.45
2022-10-02T02:19:53.984Z,6.10
2022-10-02T02:22:26.462Z,5.97
2022-10-02T02:25:23.625Z,6.32
2022-10-02T02:27:58.834Z,5.68
2022-10-02T02:30:31.561Z,5.63
2022-10-02T02:33:38.212Z,6.65
2022-10-02T02:36:13.748Z,5.93
2022-10-02T02:38:48.312Z,5.78
2022-10-02T02:41:27.133Z,6.60
2022-10-02T02:44:18.008Z,5.60
2022-10-02T02:47:17.728Z,5.10
2022-10-02T02:49:53.009Z,5.10
2022-10-02T02:52:42.215Z,5.72
2022-10-02T02:55:20.073Z,5.88
2022-10-02T02:58:19.226Z,6.13
2022-10-02T03:00:47.147Z,5.82
2022-10-02T03:03:15.039Z,6.55
2022-10-02T03:05:48.809Z,7.18
2022-10-02T03:08:26.814Z,6.88
2022-10-02T03:11:04.116Z,6.72
2022-10-02T03:13:58.936Z,5.85
2022-10-02T03:17:01.187Z,6.18
2022-10-02T03:20:09.061Z,6.28
2022-10-02T03:23:14.335Z,6.28
2022-10-02T03:26:02.104Z,6.38
2022-10-02T03:28:55.979Z,5.55
2022-10-02T03:31:29.613Z,6.45
2022-10-02T03:34:01.948Z,6.18
2022-10-02T03:36:31.317Z,6.03
2022-10-02T03:41:53.224Z,5.28
2022-10-02T03:44:20.729Z,5.68
2022-10-02T03:46:48.140Z,5.82
2022-10-02T03:49:15.539Z,5.32
2022-10-02T03:51:42.882Z,5.43
2022-10-02T03:54:18.263Z,4.82
2022-10-02T03:57:03.350Z,4.75
2022-10-02T04:00:01.898Z,4.60
2022-10-02T04:02:57.907Z,4.25
2022-10-02T04:05:39.436Z,4.03
2022-10-02T04:08:18.051Z,4.22
2022-10-02T04:10:59.840Z,4.72
2022-10-02T04:16:14.714Z,4.70
2022-10-02T04:18:58.588Z,4.55
2022-10-02T04:21:41.803Z,4.82
2022-10-02T04:24:18.123Z,4.72
2022-10-02T04:27:01.466Z,4.70
2022-10-02T04:29:46.399Z,4.55
2022-10-02T04:32:27.901Z,5.35
2022-10-02T04:34:55.632Z,4.35
2022-10-02T04:38:02.160Z,4.90
2022-10-02T04:41:02.837Z,4.60
2022-10-02T04:43:59.363Z,4.10
2022-10-02T04:46:56.976Z,3.70
2022-10-02T04:49:43.811Z,4.20
2022-10-02T04:52:43.313Z,4.03
2022-10-02T04:55:45.419Z,4.68
2022-10-02T05:01:36.195Z,3.53
2022-10-02T05:04:42.235Z,3.85
2022-10-02T05:07:33.813Z,4.47
2022-10-02T05:10:58.554Z,4.53
2022-10-02T05:14:01.075Z,4.20
2022-10-02T05:17:05.791Z,4.93
2022-10-02T05:20:19.538Z,4.97
2022-10-02T05:23:04.280Z,4.43
2022-10-02T05:25:49.980Z,5.05
2022-10-02T05:28:23.444Z,5.32
2022-10-02T05:31:30.805Z,5.90
2022-10-02T05:34:18.141Z,6.45
2022-10-02T05:37:02.378Z,6.57
2022-10-02T05:39:49.631Z,6.90
2022-10-02T05:42:32.832Z,7.00
2022-10-02T05:45:11.480Z,6.68
2022-10-02T05:47:45.138Z,7.38
2022-10-02T05:50:12.364Z,7.45
2022-10-02T05:52:56.157Z,7.70
2022-10-02T05:55:39.150Z,7.15
2022-10-02T05:58:15.256Z,8.35
2022-10-02T06:01:02.539Z,8.20
2022-10-02T06:03:47.778Z,8.10
2022-10-02T06:06:23.778Z,7.95
2022-10-02T06:09:02.216Z,8.85
2022-10-02T06:11:52.582Z,8.43
2022-10-02T06:14:54.328Z,9.88
2022-10-02T06:17:31.408Z,10.07
2022-10-02T06:20:27.727Z,10.25
2022-10-02T06:23:05.130Z,9.65
2022-10-02T06:25:43.113Z,10.38
2022-10-02T06:28:41.777Z,9.77
2022-10-02T06:31:54.563Z,11.00
2022-10-02T06:34:22.761Z,11.60
2022-10-02T06:37:15.488Z,12.85
2022-10-02T06:40:21.388Z,12.77
2022-10-02T06:43:33.974Z,12.38
2022-10-02T06:46:36.078Z,13.25
2022-10-02T06:49:36.999Z,12.45
2022-10-02T06:52:38.537Z,14.20
2022-10-02T06:55:43.216Z,15.48
2022-10-02T06:58:55.396Z,16.50
2022-10-02T07:04:51.725Z,16.90
2022-10-02T07:07:33.929Z,16.60
2022-10-02T07:10:10.287Z,15.60
2022-10-02T07:13:21.043Z,15.38
2022-10-02T07:16:19.363Z,14.27
2022-10-02T07:19:33.787Z,13.85
2022-10-02T07:22:42.739Z,13.40
2022-10-02T07:25:48.588Z,12.82
2022-10-02T07:28:47.501Z,12.53
2022-10-02T07:32:13.523Z,12.38
2022-10-02T07:35:26.128Z,10.75
2022-10-02T07:38:17.985Z,11.15
2022-10-02T07:44:06.896Z,10.02
2022-10-02T07:47:01.860Z,9.80
2022-10-02T07:49:50.686Z,9.10
2022-10-02T07:53:03.591Z,8.77
2022-10-02T07:55:37.431Z,9.23
2022-10-02T07:58:07.944Z,10.15
2022-10-02T08:00:59.544Z,9.05
2022-10-02T08:03:43.159Z,10.52
2022-10-02T08:06:11.187Z,9.43
2022-10-02T08:09:14.317Z,10.00
2022-10-02T08:11:56.725Z,9.98
2022-10-02T08:14:38.154Z,10.18
2022-10-02T08:17:58.686Z,11.00
2022-10-02T08:21:01.189Z,9.45
2022-10-02T08:23:45.188Z,8.90
2022-10-02T08:26:24.918Z,10.60
2022-10-02T08:29:05.823Z,9.90
2022-10-02T08:31:33.334Z,10.10
2022-10-02T08:34:18.706Z,10.35
2022-10-02T08:37:08.356Z,10.55
2022-10-02T08:40:20.530Z,9.43
2022-10-02T08:45:52.088Z,10.60
2022-10-02T08:48:59.577Z,9.85
2022-10-02T08:52:03.708Z,11.07
2022-10-02T08:55:17.575Z,10.07
2022-10-02T08:57:51.356Z,8.10
2022-10-02T09:00:49.280Z,6.13
2022-10-02T09:04:00.359Z,6.10
2022-10-02T09:07:15.633Z,5.45
2022-10-02T09:10:01.510Z,6.40
2022-10-02T09:12:48.945Z,6.05
2022-10-02T09:15:46.284Z,5.57
2022-10-02T09:18:18.849Z,6.30
2022-10-02T09:21:26.405Z,6.22
2022-10-02T09:25:09.875Z,5.68
2022-10-02T09:28:12.302Z,5.07
2022-10-02T09:31:16.142Z,5.78
2022-10-02T09:34:31.894Z,4.85
2022-10-02T09:37:44.308Z,4.00
2022-10-02T09:40:59.701Z,4.00
2022-10-02T09:44:11.822Z,3.67
2022-10-02T09:50:03.601Z,4.55
2022-10-02T09:52:53.623Z,3.20
2022-10-02T09:56:05.448Z,3.20
2022-10-02T09:59:19.631Z,3.60
2022-10-02T10:02:14.938Z,3.25
2022-10-02T10:05:49.012Z,3.28
2022-10-02T10:08:48.181Z,3.33
2022-10-02T10:11:42.548Z,3.38
2022-10-02T10:14:24.571Z,3.22
2022-10-02T10:20:12.733Z,3.50
2022-10-02T10:23:42.545Z,3.35
2022-10-02T10:26:33.270Z,2.95
2022-10-02T10:29:26.479Z,3.00
2022-10-02T10:32:38.995Z,3.25
2022-10-02T10:35:40.122Z,3.40
2022-10-02T10:38:42.876Z,2.83
2022-10-02T10:42:17.266Z,3.22
2022-10-02T10:45:26.606Z,2.90
2022-10-02T10:48:15.896Z,2.50
2022-10-02T10:51:16.836Z,2.72
2022-10-02T10:54:40.445Z,2.60
2022-10-02T10:57:41.115Z,2.75
2022-10-02T11:00:19.585Z,3.00
2022-10-02T11:03:21.561Z,2.88
2022-10-02T11:09:26.841Z,2.47
2022-10-02T11:12:23.340Z,2.47
2022-10-02T11:15:23.524Z,2.65
2022-10-02T11:18:03.989Z,2.60
2022-10-02T11:20:59.201Z,2.20
2022-10-02T11:24:24.681Z,2.30
2022-10-02T11:27:16.330Z,2.40
2022-10-02T11:30:20.852Z,2.78
2022-10-02T11:33:19.258Z,2.28
2022-10-02T11:36:20.570Z,3.20
2022-10-02T11:39:20.942Z,2.20
2022-10-02T11:42:33.445Z,2.55
2022-10-02T11:45:43.624Z,2.45
2022-10-02T11:48:35.719Z,2.70
2022-10-02T11:51:48.419Z,2.45
2022-10-02T11:55:09.941Z,2.95
2022-10-02T11:58:17.756Z,2.75
2022-10-02T12:00:45.282Z,3.33
2022-10-02T12:03:46.007Z,2.40
2022-10-02T12:06:26.614Z,2.53
2022-10-02T12:09:44.585Z,2.25
2022-10-02T12:12:44.504Z,2.78
2022-10-02T12:15:41.996Z,2.60
2022-10-02T12:18:46.814Z,2.58
2022-10-02T12:22:26.923Z,2.67
2022-10-02T12:25:38.128Z,2.38
2022-10-02T12:28:43.161Z,2.80
2022-10-02T12:31:51.363Z,2.58
2022-10-02T12:35:04.801Z,3.28
2022-10-02T12:37:56.116Z,2.70
2022-10-02T12:40:55.634Z,2.65
2022-10-02T12:43:55.277Z,2.47
2022-10-02T12:47:08.303Z,2.67
2022-10-02T12:50:09.327Z,2.55
2022-10-02T12:53:14.168Z,2.40
2022-10-02T12:56:34.251Z,2.30
2022-10-02T12:59:15.215Z,2.58
2022-10-02T13:02:13.651Z,2.40
2022-10-02T13:05:02.214Z,2.25
2022-10-02T13:08:14.101Z,2.60
2022-10-02T13:10:47.505Z,2.58
2022-10-02T13:13:48.137Z,2.50
2022-10-02T13:16:46.685Z,2.72
2022-10-02T13:19:49.968Z,2.35
2022-10-02T13:22:58.146Z,2.22
2022-10-02T13:25:54.489Z,2.17
2022-10-02T13:28:51.479Z,1.95
2022-10-02T13:31:50.866Z,1.77
2022-10-02T13:34:48.741Z,2.10
2022-10-02T13:37:38.009Z,1.92
2022-10-02T13:40:36.178Z,2.28
2022-10-02T13:43:42.230Z,2.13
2022-10-02T13:46:51.823Z,2.28
2022-10-02T13:50:05.840Z,1.77
2022-10-02T13:52:53.146Z,1.88
2022-10-02T13:55:27.213Z,2.17
2022-10-02T13:58:41.725Z,2.05
2022-10-02T14:01:36.359Z,1.50
2022-10-02T14:04:19.590Z,1.95
2022-10-02T14:07:00.933Z,2.00
2022-10-02T14:09:55.509Z,1.80
2022-10-02T14:12:36.953Z,1.70
2022-10-02T14:15:50.950Z,1.50
2022-10-02T14:19:13.178Z,2.30
2022-10-02T14:25:22.795Z,2.00
2022-10-02T14:28:16.976Z,2.22
2022-10-02T14:31:37.888Z,2.10
2022-10-02T14:34:50.001Z,2.15
2022-10-02T14:37:44.469Z,2.25
2022-10-02T14:40:18.750Z,1.95
2022-10-02T14:43:21.343Z,1.50
2022-10-02T14:46:25.653Z,2.08
2022-10-02T14:49:27.111Z,1.85
2022-10-02T14:52:06.388Z,1.98
2022-10-02T14:54:55.033Z,1.58
2022-10-02T14:57:59.420Z,1.38
2022-10-02T15:00:46.733Z,1.75
2022-10-02T15:03:23.311Z,1.80
2022-10-02T15:06:25.176Z,1.90
2022-10-02T15:11:36.804Z,1.67
2022-10-02T15:14:14.604Z,2.22
2022-10-02T15:17:42.826Z,1.83
2022-10-02T15:20:22.512Z,1.98
2022-10-02T15:23:00.067Z,2.30
2022-10-02T15:26:04.916Z,2.00
2022-10-02T15:29:07.572Z,2.30
2022-10-02T15:31:35.862Z,1.92
2022-10-02T15:34:42.281Z,1.65
2022-10-02T15:37:33.323Z,2.05
2022-10-02T15:40:11.841Z,2.00
2022-10-02T15:42:58.693Z,2.55
2022-10-02T15:45:42.992Z,2.03
2022-10-02T15:48:51.573Z,2.13
2022-10-02T15:51:44.486Z,1.90
2022-10-02T15:54:33.051Z,2.38
2022-10-02T15:57:40.975Z,1.80
2022-10-02T16:00:08.218Z,2.28
2022-10-02T16:02:53.164Z,1.90
2022-10-02T16:05:51.118Z,2.08
2022-10-02T16:08:49.933Z,2.05
2022-10-02T16:12:00.985Z,2.38
2022-10-02T16:15:05.626Z,2.03
2022-10-02T16:18:05.420Z,2.03
2022-10-02T16:21:19.568Z,2.22
2022-10-02T16:24:27.663Z,1.73
2022-10-02T16:27:19.949Z,2.22
2022-10-02T16:30:13.476Z,2.28
2022-10-02T16:33:27.057Z,2.00
2022-10-02T16:36:31.994Z,2.33
2022-10-02T16:39:10.503Z,2.47
2022-10-02T16:42:13.241Z,1.95
2022-10-02T16:45:16.381Z,2.90
2022-10-02T16:47:56.405Z,2.33
2022-10-02T16:50:51.319Z,2.85
2022-10-02T16:53:51.121Z,2.38
2022-10-02T16:56:42.396Z,2.47
2022-10-02T16:59:24.945Z,2.53
2022-10-02T17:02:18.887Z,2.13
2022-10-02T17:05:02.523Z,2.22
2022-10-02T17:07:52.102Z,2.72
2022-10-02T17:10:57.454Z,3.00
2022-10-02T17:13:37.748Z,2.70
2022-10-02T17:16:21.104Z,2.58
2022-10-02T17:19:13.593Z,2.47
2022-10-02T17:22:09.503Z,2.33
2022-10-02T17:24:50.201Z,2.42
2022-10-02T17:27:35.608Z,2.30
2022-10-02T17:30:27.177Z,2.60
2022-10-02T17:33:15.173Z,2.53
2022-10-02T17:36:02.264Z,3.33
2022-10-02T17:39:08.823Z,2.08
2022-10-02T17:41:50.922Z,2.97
2022-10-02T17:45:03.935Z,2.38
2022-10-02T17:48:02.214Z,2.47
2022-10-02T17:51:47.114Z,2.30
2022-10-02T17:55:05.487Z,2.45
2022-10-02T17:57:53.705Z,2.30
2022-10-02T18:00:26.259Z,2.58
2022-10-02T18:03:31.128Z,2.20
2022-10-02T18:06:19.249Z,2.30
2022-10-02T18:09:23.335Z,2.33
2022-10-02T18:12:26.605Z,2.58
2022-10-02T18:15:18.619Z,2.35
2022-10-02T18:18:32.588Z,2.70
2022-10-02T18:21:32.870Z,3.30
2022-10-02T18:24:42.807Z,2.60
2022-10-02T18:27:32.181Z,2.40
2022-10-02T18:30:04.691Z,2.78
2022-10-02T18:33:26.165Z,2.80
2022-10-02T18:36:02.151Z,3.20
2022-10-02T18:39:25.359Z,3.05
2022-10-02T18:42:29.887Z,2.55
2022-10-02T18:45:26.997Z,2.83
2022-10-02T18:48:19.798Z,3.22
2022-10-02T18:51:31.870Z,2.80
2022-10-02T18:54:17.499Z,2.90
2022-10-02T18:57:08.899Z,2.92
2022-10-02T19:00:02.540Z,3.17
2022-10-02T19:02:44.813Z,3.67
2022-10-02T19:05:35.294Z,2.78
2022-10-02T19:08:10.306Z,3.28
2022-10-02T19:10:44.745Z,3.20
2022-10-02T19:13:28.728Z,3.90
2022-10-02T19:15:58.661Z,3.55
2022-10-02T19:18:29.091Z,3.30
2022-10-02T19:21:19.366Z,3.85
2022-10-02T19:23:56.320Z,3.72
2022-10-02T19:26:32.272Z,3.50
2022-10-02T19:29:08.067Z,3.45
2022-10-02T19:31:39.237Z,3.60
2022-10-02T19:36:51.939Z,3.20
2022-10-02T19:39:30.533Z,3.78
2022-10-02T19:42:05.771Z,3.65
2022-10-02T19:44:47.279Z,4.53
2022-10-02T19:47:37.586Z,4.53
2022-10-02T19:50:08.486Z,4.32
2022-10-02T19:52:46.793Z,3.57
2022-10-02T19:55:34.353Z,2.97
2022-10-02T19:58:21.331Z,3.55
2022-10-02T20:00:52.523Z,3.05
2022-10-02T20:03:24.176Z,4.03
2022-10-02T20:06:12.335Z,3.25
2022-10-02T20:08:56.254Z,3.60
2022-10-02T20:11:42.247Z,3.40
2022-10-02T20:14:26.998Z,3.28
2022-10-02T20:17:09.740Z,3.47
2022-10-02T20:19:51.737Z,3.17
2022-10-02T20:22:40.140Z,3.35
2022-10-02T20:25:18.670Z,3.97
2022-10-02T20:28:28.000Z,3.40
2022-10-02T20:31:05.979Z,4.05
2022-10-02T20:33:44.050Z,3.50
2022-10-02T20:36:26.185Z,4.03
2022-10-02T20:39:01.020Z,3.47
2022-10-02T20:42:00.996Z,3.63
2022-10-02T20:44:33.175Z,3.42
2022-10-02T20:47:57.461Z,3.45
2022-10-02T20:50:44.967Z,3.47
2022-10-02T20:53:52.495Z,3.45
2022-10-02T20:56:40.041Z,3.40
2022-10-02T20:59:33.138Z,3.40
2022-10-02T21:02:39.247Z,3.83
2022-10-02T21:05:31.001Z,4.07
2022-10-02T21:08:31.968Z,3.67
2022-10-02T21:11:45.014Z,4.38
2022-10-02T21:14:43.102Z,3.80
2022-10-02T21:17:38.857Z,3.30
2022-10-02T21:20:50.732Z,4.00
2022-10-02T21:24:15.995Z,3.67
2022-10-02T21:27:12.562Z,4.05
2022-10-02T21:30:03.540Z,4.18
2022-10-02T21:32:59.454Z,4.32
2022-10-02T21:36:04.171Z,4.20
2022-10-02T21:39:13.834Z,3.92
2022-10-02T21:42:13.238Z,4.32
2022-10-02T21:45:34.600Z,4.63
2022-10-02T21:49:04.783Z,5.25
2022-10-02T21:52:24.152Z,5.05
2022-10-02T21:55:31.798Z,4.47
2022-10-02T21:58:48.264Z,4.55
2022-10-02T22:01:30.776Z,4.63
2022-10-02T22:04:49.571Z,4.63
2022-10-02T22:08:02.308Z,5.03
2022-10-02T22:10:56.469Z,5.03
2022-10-02T22:13:39.229Z,4.88
2022-10-02T22:17:01.415Z,5.05
2022-10-02T22:19:57.936Z,4.72
2022-10-02T22:22:59.328Z,5.25
2022-10-02T22:26:08.355Z,4.80
2022-10-02T22:29:07.316Z,5.30
2022-10-02T22:32:29.810Z,4.93
2022-10-02T22:38:01.778Z,4.68
2022-10-02T22:40:44.291Z,4.22
2022-10-02T22:43:25.892Z,4.95
2022-10-02T22:46:31.294Z,5.32
2022-10-02T22:48:58.533Z,4.82
2022-10-02T22:51:48.952Z,4.68
2022-10-02T22:54:39.998Z,4.55
2022-10-02T22:57:19.204Z,4.23
2022-10-02T22:59:56.898Z,4.57
2022-10-02T23:02:34.891Z,4.05
2022-10-02T23:05:18.889Z,4.25
2022-10-02T23:08:48.596Z,4.05
2022-10-02T23:11:31.026Z,4.10
2022-10-02T23:14:05.866Z,4.57
2022-10-02T23:16:36.284Z,4.88
2022-10-02T23:19:19.638Z,5.68
2022-10-02T23:22:06.803Z,4.75
2022-10-02T23:24:58.052Z,4.85
2022-10-02T23:27:50.273Z,4.80
2022-10-02T23:30:21.975Z,4.47
2022-10-02T23:36:04.033Z,5.15
2022-10-02T23:38:45.625Z,4.88
2022-10-02T23:41:37.465Z,5.07
2022-10-02T23:44:29.327Z,5.00
2022-10-02T23:47:12.953Z,5.30
2022-10-02T23:49:53.674Z,4.63
2022-10-02T23:52:46.126Z,5.40
2022-10-02T23:55:51.750Z,5.03
2022-10-02T23:58:37.124Z,5.80
